sensor_id;sensor_type;location;lat;lon;timestamp;P1;durP1;ratioP1;P2;durP2;ratioP2
13797;SDS011;6970;51.340;3.240;2023-02-28T00:01:24;4.33;;;2.80;;
13797;SDS011;6970;51.340;3.240;2023-02-28T00:03:52;3.00;;;2.17;;
13797;SDS011;6970;51.340;3.240;2023-02-28T00:06:20;3.63;;;2.50;;
13797;SDS011;6970;51.340;3.240;2023-02-28T00:08:47;3.10;;;2.63;;
13797;SDS011;6970;51.340;3.240;2023-02-28T00:11:14;3.53;;;2.43;;
13797;SDS011;6970;51.340;3.240;2023-02-28T00:13:43;5.93;;;2.47;;
13797;SDS011;6970;51.340;3.240;2023-02-28T00:16:16;3.43;;;2.63;;
13797;SDS011;6970;51.340;3.240;2023-02-28T00:18:48;3.73;;;2.43;;
13797;SDS011;6970;51.340;3.240;2023-02-28T00:21:15;2.37;;;2.17;;
13797;SDS011;6970;51.340;3.240;2023-02-28T00:23:43;3.20;;;2.43;;
13797;SDS011;6970;51.340;3.240;2023-02-28T00:26:10;4.83;;;2.70;;
13797;SDS011;6970;51.340;3.240;2023-02-28T00:28:37;2.73;;;2.43;;
13797;SDS011;6970;51.340;3.240;2023-02-28T00:31:04;5.23;;;2.40;;
13797;SDS011;6970;51.340;3.240;2023-02-28T00:33:31;5.67;;;2.43;;
13797;SDS011;6970;51.340;3.240;2023-02-28T00:36:08;3.13;;;2.53;;
13797;SDS011;6970;51.340;3.240;2023-02-28T00:38:36;3.57;;;2.40;;
13797;SDS011;6970;51.340;3.240;2023-02-28T00:41:04;2.50;;;2.30;;
13797;SDS011;6970;51.340;3.240;2023-02-28T00:43:32;7.20;;;2.70;;
13797;SDS011;6970;51.340;3.240;2023-02-28T00:46:01;5.33;;;2.30;;
13797;SDS011;6970;51.340;3.240;2023-02-28T00:48:29;5.73;;;2.63;;
13797;SDS011;6970;51.340;3.240;2023-02-28T00:50:56;3.07;;;2.77;;
13797;SDS011;6970;51.340;3.240;2023-02-28T00:53:23;6.30;;;2.53;;
13797;SDS011;6970;51.340;3.240;2023-02-28T00:55:50;6.27;;;2.50;;
13797;SDS011;6970;51.340;3.240;2023-02-28T00:58:17;2.40;;;1.97;;
13797;SDS011;6970;51.340;3.240;2023-02-28T01:00:44;7.13;;;2.63;;
13797;SDS011;6970;51.340;3.240;2023-02-28T01:03:18;3.80;;;2.50;;
13797;SDS011;6970;51.340;3.240;2023-02-28T01:05:46;3.00;;;2.43;;
13797;SDS011;6970;51.340;3.240;2023-02-28T01:08:13;3.53;;;2.40;;
13797;SDS011;6970;51.340;3.240;2023-02-28T01:10:41;3.60;;;2.60;;
13797;SDS011;6970;51.340;3.240;2023-02-28T01:13:08;6.60;;;2.50;;
13797;SDS011;6970;51.340;3.240;2023-02-28T01:15:35;4.07;;;2.80;;
13797;SDS011;6970;51.340;3.240;2023-02-28T01:18:02;3.30;;;2.60;;
13797;SDS011;6970;51.340;3.240;2023-02-28T01:20:29;2.97;;;2.40;;
13797;SDS011;6970;51.340;3.240;2023-02-28T01:22:56;3.97;;;2.63;;
13797;SDS011;6970;51.340;3.240;2023-02-28T01:25:23;2.90;;;2.57;;
13797;SDS011;6970;51.340;3.240;2023-02-28T01:27:50;5.63;;;2.63;;
13797;SDS011;6970;51.340;3.240;2023-02-28T01:30:18;5.43;;;3.17;;
13797;SDS011;6970;51.340;3.240;2023-02-28T01:32:45;4.63;;;3.40;;
13797;SDS011;6970;51.340;3.240;2023-02-28T01:35:12;3.43;;;2.70;;
13797;SDS011;6970;51.340;3.240;2023-02-28T01:37:39;3.97;;;2.40;;
13797;SDS011;6970;51.340;3.240;2023-02-28T01:40:06;3.17;;;2.87;;
13797;SDS011;6970;51.340;3.240;2023-02-28T01:42:34;4.03;;;3.00;;
13797;SDS011;6970;51.340;3.240;2023-02-28T01:47:34;5.13;;;2.97;;
13797;SDS011;6970;51.340;3.240;2023-02-28T01:50:06;7.37;;;3.13;;
13797;SDS011;6970;51.340;3.240;2023-02-28T01:52:37;8.73;;;3.97;;
13797;SDS011;6970;51.340;3.240;2023-02-28T01:55:05;6.30;;;3.70;;
13797;SDS011;6970;51.340;3.240;2023-02-28T01:57:38;7.50;;;3.83;;
13797;SDS011;6970;51.340;3.240;2023-02-28T02:00:12;6.20;;;3.70;;
13797;SDS011;6970;51.340;3.240;2023-02-28T02:02:45;5.60;;;3.40;;
13797;SDS011;6970;51.340;3.240;2023-02-28T02:05:27;3.93;;;3.53;;
13797;SDS011;6970;51.340;3.240;2023-02-28T02:08:01;7.07;;;4.20;;
13797;SDS011;6970;51.340;3.240;2023-02-28T02:10:35;5.90;;;3.67;;
13797;SDS011;6970;51.340;3.240;2023-02-28T02:18:33;6.33;;;3.77;;
13797;SDS011;6970;51.340;3.240;2023-02-28T02:24:13;5.83;;;4.40;;
13797;SDS011;6970;51.340;3.240;2023-02-28T02:32:18;6.77;;;4.43;;
13797;SDS011;6970;51.340;3.240;2023-02-28T02:40:45;8.93;;;4.63;;
13797;SDS011;6970;51.340;3.240;2023-02-28T02:43:20;10.77;;;4.43;;
13797;SDS011;6970;51.340;3.240;2023-02-28T02:45:54;7.83;;;4.67;;
13797;SDS011;6970;51.340;3.240;2023-02-28T02:48:27;7.17;;;4.63;;
13797;SDS011;6970;51.340;3.240;2023-02-28T02:50:59;8.47;;;4.90;;
13797;SDS011;6970;51.340;3.240;2023-02-28T02:53:32;5.10;;;3.87;;
13797;SDS011;6970;51.340;3.240;2023-02-28T02:56:04;7.23;;;4.67;;
13797;SDS011;6970;51.340;3.240;2023-02-28T02:58:34;4.47;;;4.07;;
13797;SDS011;6970;51.340;3.240;2023-02-28T03:01:10;5.77;;;4.00;;
13797;SDS011;6970;51.340;3.240;2023-02-28T03:03:58;5.37;;;4.40;;
13797;SDS011;6970;51.340;3.240;2023-02-28T03:06:32;6.13;;;4.80;;
13797;SDS011;6970;51.340;3.240;2023-02-28T03:08:59;4.37;;;3.90;;
13797;SDS011;6970;51.340;3.240;2023-02-28T03:11:26;5.20;;;4.13;;
13797;SDS011;6970;51.340;3.240;2023-02-28T03:16:29;7.80;;;4.17;;
13797;SDS011;6970;51.340;3.240;2023-02-28T03:27:09;5.77;;;4.23;;
13797;SDS011;6970;51.340;3.240;2023-02-28T03:29:44;4.30;;;3.90;;
13797;SDS011;6970;51.340;3.240;2023-02-28T03:32:21;5.43;;;3.80;;
13797;SDS011;6970;51.340;3.240;2023-02-28T03:35:23;5.40;;;3.70;;
13797;SDS011;6970;51.340;3.240;2023-02-28T03:38:02;3.80;;;3.50;;
13797;SDS011;6970;51.340;3.240;2023-02-28T03:40:33;5.57;;;3.50;;
13797;SDS011;6970;51.340;3.240;2023-02-28T03:43:04;3.73;;;3.03;;
13797;SDS011;6970;51.340;3.240;2023-02-28T03:45:37;4.47;;;3.20;;
13797;SDS011;6970;51.340;3.240;2023-02-28T03:50:44;5.80;;;3.37;;
13797;SDS011;6970;51.340;3.240;2023-02-28T03:55:47;5.03;;;2.90;;
13797;SDS011;6970;51.340;3.240;2023-02-28T04:01:09;4.47;;;2.80;;
13797;SDS011;6970;51.340;3.240;2023-02-28T04:03:41;5.90;;;3.40;;
13797;SDS011;6970;51.340;3.240;2023-02-28T04:06:08;3.57;;;3.10;;
13797;SDS011;6970;51.340;3.240;2023-02-28T04:08:42;7.40;;;3.00;;
13797;SDS011;6970;51.340;3.240;2023-02-28T04:11:18;5.20;;;2.70;;
13797;SDS011;6970;51.340;3.240;2023-02-28T04:13:50;4.33;;;2.77;;
13797;SDS011;6970;51.340;3.240;2023-02-28T04:16:17;3.90;;;2.80;;
13797;SDS011;6970;51.340;3.240;2023-02-28T04:19:00;6.23;;;2.53;;
13797;SDS011;6970;51.340;3.240;2023-02-28T04:21:33;3.37;;;3.07;;
13797;SDS011;6970;51.340;3.240;2023-02-28T04:24:21;4.10;;;2.50;;
13797;SDS011;6970;51.340;3.240;2023-02-28T04:26:50;4.63;;;3.50;;
13797;SDS011;6970;51.340;3.240;2023-02-28T04:29:19;2.90;;;2.60;;
13797;SDS011;6970;51.340;3.240;2023-02-28T04:31:54;4.40;;;3.20;;
13797;SDS011;6970;51.340;3.240;2023-02-28T04:34:24;5.57;;;3.10;;
13797;SDS011;6970;51.340;3.240;2023-02-28T04:36:53;3.90;;;3.03;;
13797;SDS011;6970;51.340;3.240;2023-02-28T04:39:37;3.60;;;2.90;;
13797;SDS011;6970;51.340;3.240;2023-02-28T04:42:04;5.93;;;3.20;;
13797;SDS011;6970;51.340;3.240;2023-02-28T04:44:31;4.70;;;3.10;;
13797;SDS011;6970;51.340;3.240;2023-02-28T04:46:58;6.50;;;3.83;;
13797;SDS011;6970;51.340;3.240;2023-02-28T04:49:25;3.30;;;2.93;;
13797;SDS011;6970;51.340;3.240;2023-02-28T04:51:52;7.07;;;3.00;;
13797;SDS011;6970;51.340;3.240;2023-02-28T04:54:19;4.87;;;3.60;;
13797;SDS011;6970;51.340;3.240;2023-02-28T04:56:46;5.10;;;3.80;;
13797;SDS011;6970;51.340;3.240;2023-02-28T04:59:16;4.73;;;3.27;;
13797;SDS011;6970;51.340;3.240;2023-02-28T05:01:47;3.30;;;3.00;;
13797;SDS011;6970;51.340;3.240;2023-02-28T05:04:15;4.47;;;3.13;;
13797;SDS011;6970;51.340;3.240;2023-02-28T05:06:43;4.70;;;3.30;;
13797;SDS011;6970;51.340;3.240;2023-02-28T05:09:11;3.77;;;3.33;;
13797;SDS011;6970;51.340;3.240;2023-02-28T05:11:38;6.87;;;3.60;;
13797;SDS011;6970;51.340;3.240;2023-02-28T05:14:09;4.20;;;3.73;;
13797;SDS011;6970;51.340;3.240;2023-02-28T05:16:38;6.97;;;3.50;;
13797;SDS011;6970;51.340;3.240;2023-02-28T05:19:06;7.00;;;3.97;;
13797;SDS011;6970;51.340;3.240;2023-02-28T05:21:34;6.07;;;3.43;;
13797;SDS011;6970;51.340;3.240;2023-02-28T05:24:06;5.40;;;3.83;;
13797;SDS011;6970;51.340;3.240;2023-02-28T05:26:37;5.63;;;3.93;;
13797;SDS011;6970;51.340;3.240;2023-02-28T05:29:05;5.63;;;4.30;;
13797;SDS011;6970;51.340;3.240;2023-02-28T05:31:33;5.67;;;3.50;;
13797;SDS011;6970;51.340;3.240;2023-02-28T05:34:00;4.50;;;3.43;;
13797;SDS011;6970;51.340;3.240;2023-02-28T05:36:27;5.47;;;4.27;;
13797;SDS011;6970;51.340;3.240;2023-02-28T05:38:54;8.20;;;4.80;;
13797;SDS011;6970;51.340;3.240;2023-02-28T05:41:21;5.20;;;4.13;;
13797;SDS011;6970;51.340;3.240;2023-02-28T05:43:48;6.90;;;4.27;;
13797;SDS011;6970;51.340;3.240;2023-02-28T05:46:17;5.83;;;4.10;;
13797;SDS011;6970;51.340;3.240;2023-02-28T05:48:45;6.00;;;4.27;;
13797;SDS011;6970;51.340;3.240;2023-02-28T05:51:13;5.20;;;4.37;;
13797;SDS011;6970;51.340;3.240;2023-02-28T05:53:41;5.57;;;3.70;;
13797;SDS011;6970;51.340;3.240;2023-02-28T05:56:08;4.57;;;4.17;;
13797;SDS011;6970;51.340;3.240;2023-02-28T05:58:35;5.03;;;4.50;;
13797;SDS011;6970;51.340;3.240;2023-02-28T06:01:18;8.17;;;4.50;;
13797;SDS011;6970;51.340;3.240;2023-02-28T06:03:48;5.80;;;4.63;;
13797;SDS011;6970;51.340;3.240;2023-02-28T06:06:15;5.97;;;4.60;;
13797;SDS011;6970;51.340;3.240;2023-02-28T06:08:42;5.77;;;4.67;;
13797;SDS011;6970;51.340;3.240;2023-02-28T06:11:11;5.30;;;4.70;;
13797;SDS011;6970;51.340;3.240;2023-02-28T06:13:38;5.70;;;4.80;;
13797;SDS011;6970;51.340;3.240;2023-02-28T06:16:06;6.77;;;4.83;;
13797;SDS011;6970;51.340;3.240;2023-02-28T06:18:35;6.90;;;5.40;;
13797;SDS011;6970;51.340;3.240;2023-02-28T06:21:02;6.53;;;5.23;;
13797;SDS011;6970;51.340;3.240;2023-02-28T06:23:30;6.50;;;5.20;;
13797;SDS011;6970;51.340;3.240;2023-02-28T06:25:57;6.87;;;5.57;;
13797;SDS011;6970;51.340;3.240;2023-02-28T06:28:25;6.90;;;5.13;;
13797;SDS011;6970;51.340;3.240;2023-02-28T06:30:52;6.40;;;5.57;;
13797;SDS011;6970;51.340;3.240;2023-02-28T06:33:19;5.67;;;5.17;;
13797;SDS011;6970;51.340;3.240;2023-02-28T06:35:47;6.33;;;5.47;;
13797;SDS011;6970;51.340;3.240;2023-02-28T06:38:16;6.17;;;5.57;;
13797;SDS011;6970;51.340;3.240;2023-02-28T06:40:44;6.60;;;5.87;;
13797;SDS011;6970;51.340;3.240;2023-02-28T06:43:18;6.10;;;5.50;;
13797;SDS011;6970;51.340;3.240;2023-02-28T06:45:45;5.30;;;4.77;;
13797;SDS011;6970;51.340;3.240;2023-02-28T06:48:13;6.80;;;5.60;;
13797;SDS011;6970;51.340;3.240;2023-02-28T06:50:40;6.33;;;5.73;;
13797;SDS011;6970;51.340;3.240;2023-02-28T06:53:07;7.77;;;6.23;;
13797;SDS011;6970;51.340;3.240;2023-02-28T06:55:34;6.97;;;6.17;;
13797;SDS011;6970;51.340;3.240;2023-02-28T06:58:03;6.83;;;6.23;;
13797;SDS011;6970;51.340;3.240;2023-02-28T07:00:44;6.93;;;6.00;;
13797;SDS011;6970;51.340;3.240;2023-02-28T07:03:12;11.07;;;7.17;;
13797;SDS011;6970;51.340;3.240;2023-02-28T07:05:39;11.17;;;6.93;;
13797;SDS011;6970;51.340;3.240;2023-02-28T07:08:07;8.00;;;5.70;;
13797;SDS011;6970;51.340;3.240;2023-02-28T07:10:36;6.97;;;6.03;;
13797;SDS011;6970;51.340;3.240;2023-02-28T07:13:04;6.87;;;6.13;;
13797;SDS011;6970;51.340;3.240;2023-02-28T07:15:33;9.67;;;6.57;;
13797;SDS011;6970;51.340;3.240;2023-02-28T07:18:04;9.63;;;6.33;;
13797;SDS011;6970;51.340;3.240;2023-02-28T07:20:31;7.60;;;6.80;;
13797;SDS011;6970;51.340;3.240;2023-02-28T07:22:58;7.33;;;6.40;;
13797;SDS011;6970;51.340;3.240;2023-02-28T07:25:26;7.47;;;6.77;;
13797;SDS011;6970;51.340;3.240;2023-02-28T07:27:54;8.47;;;6.33;;
13797;SDS011;6970;51.340;3.240;2023-02-28T07:30:22;9.70;;;7.03;;
13797;SDS011;6970;51.340;3.240;2023-02-28T07:32:49;10.53;;;7.07;;
13797;SDS011;6970;51.340;3.240;2023-02-28T07:35:16;7.97;;;7.17;;
13797;SDS011;6970;51.340;3.240;2023-02-28T07:37:43;8.80;;;7.33;;
13797;SDS011;6970;51.340;3.240;2023-02-28T07:40:10;11.30;;;7.97;;
13797;SDS011;6970;51.340;3.240;2023-02-28T07:42:38;10.43;;;7.53;;
13797;SDS011;6970;51.340;3.240;2023-02-28T07:45:07;10.80;;;7.60;;
13797;SDS011;6970;51.340;3.240;2023-02-28T07:47:38;7.97;;;7.23;;
13797;SDS011;6970;51.340;3.240;2023-02-28T07:50:06;8.47;;;7.67;;
13797;SDS011;6970;51.340;3.240;2023-02-28T07:52:36;13.23;;;7.67;;
13797;SDS011;6970;51.340;3.240;2023-02-28T07:55:04;8.70;;;7.80;;
13797;SDS011;6970;51.340;3.240;2023-02-28T07:57:33;7.30;;;6.60;;
13797;SDS011;6970;51.340;3.240;2023-02-28T08:00:00;6.07;;;5.47;;
13797;SDS011;6970;51.340;3.240;2023-02-28T08:02:27;5.40;;;4.37;;
13797;SDS011;6970;51.340;3.240;2023-02-28T08:04:54;6.03;;;4.13;;
13797;SDS011;6970;51.340;3.240;2023-02-28T08:07:22;5.47;;;3.83;;
13797;SDS011;6970;51.340;3.240;2023-02-28T08:09:49;4.00;;;3.40;;
13797;SDS011;6970;51.340;3.240;2023-02-28T08:12:16;7.80;;;3.23;;
13797;SDS011;6970;51.340;3.240;2023-02-28T08:14:43;3.37;;;2.80;;
13797;SDS011;6970;51.340;3.240;2023-02-28T08:17:10;5.60;;;4.00;;
13797;SDS011;6970;51.340;3.240;2023-02-28T08:19:37;4.30;;;3.10;;
13797;SDS011;6970;51.340;3.240;2023-02-28T08:22:06;3.57;;;3.27;;
13797;SDS011;6970;51.340;3.240;2023-02-28T08:24:33;4.57;;;3.50;;
13797;SDS011;6970;51.340;3.240;2023-02-28T08:27:01;5.60;;;3.70;;
13797;SDS011;6970;51.340;3.240;2023-02-28T08:29:28;6.00;;;4.23;;
13797;SDS011;6970;51.340;3.240;2023-02-28T08:31:56;7.33;;;4.07;;
13797;SDS011;6970;51.340;3.240;2023-02-28T08:34:25;6.53;;;5.17;;
13797;SDS011;6970;51.340;3.240;2023-02-28T08:36:52;5.50;;;4.07;;
13797;SDS011;6970;51.340;3.240;2023-02-28T08:39:19;5.03;;;4.53;;
13797;SDS011;6970;51.340;3.240;2023-02-28T08:41:46;4.80;;;4.20;;
13797;SDS011;6970;51.340;3.240;2023-02-28T08:44:24;6.27;;;4.73;;
13797;SDS011;6970;51.340;3.240;2023-02-28T08:46:51;5.50;;;4.10;;
13797;SDS011;6970;51.340;3.240;2023-02-28T08:49:18;6.83;;;4.10;;
13797;SDS011;6970;51.340;3.240;2023-02-28T08:51:45;8.10;;;4.37;;
13797;SDS011;6970;51.340;3.240;2023-02-28T08:54:12;4.47;;;3.57;;
13797;SDS011;6970;51.340;3.240;2023-02-28T08:56:39;4.97;;;3.53;;
13797;SDS011;6970;51.340;3.240;2023-02-28T08:59:06;6.67;;;3.83;;
13797;SDS011;6970;51.340;3.240;2023-02-28T09:01:35;5.50;;;4.47;;
13797;SDS011;6970;51.340;3.240;2023-02-28T09:04:02;5.50;;;4.80;;
13797;SDS011;6970;51.340;3.240;2023-02-28T09:06:29;8.60;;;4.30;;
13797;SDS011;6970;51.340;3.240;2023-02-28T09:08:58;5.43;;;4.47;;
13797;SDS011;6970;51.340;3.240;2023-02-28T09:11:25;6.07;;;4.37;;
13797;SDS011;6970;51.340;3.240;2023-02-28T09:13:53;5.00;;;3.90;;
13797;SDS011;6970;51.340;3.240;2023-02-28T09:16:21;4.07;;;3.67;;
13797;SDS011;6970;51.340;3.240;2023-02-28T09:18:48;8.77;;;4.70;;
13797;SDS011;6970;51.340;3.240;2023-02-28T09:21:16;5.87;;;4.03;;
13797;SDS011;6970;51.340;3.240;2023-02-28T09:23:45;4.33;;;3.73;;
13797;SDS011;6970;51.340;3.240;2023-02-28T09:26:14;6.40;;;3.57;;
13797;SDS011;6970;51.340;3.240;2023-02-28T09:28:43;4.80;;;4.10;;
13797;SDS011;6970;51.340;3.240;2023-02-28T09:31:11;6.00;;;4.27;;
13797;SDS011;6970;51.340;3.240;2023-02-28T09:33:48;4.73;;;4.27;;
13797;SDS011;6970;51.340;3.240;2023-02-28T09:36:16;5.27;;;4.13;;
13797;SDS011;6970;51.340;3.240;2023-02-28T09:38:44;3.77;;;3.37;;
13797;SDS011;6970;51.340;3.240;2023-02-28T09:41:22;7.03;;;4.10;;
13797;SDS011;6970;51.340;3.240;2023-02-28T09:43:55;4.50;;;3.10;;
13797;SDS011;6970;51.340;3.240;2023-02-28T09:46:36;3.83;;;3.17;;
13797;SDS011;6970;51.340;3.240;2023-02-28T09:49:08;3.90;;;2.50;;
13797;SDS011;6970;51.340;3.240;2023-02-28T09:51:51;4.00;;;2.57;;
13797;SDS011;6970;51.340;3.240;2023-02-28T09:54:27;3.30;;;2.90;;
13797;SDS011;6970;51.340;3.240;2023-02-28T10:05:20;3.83;;;2.80;;
13797;SDS011;6970;51.340;3.240;2023-02-28T10:08:01;4.80;;;2.20;;
13797;SDS011;6970;51.340;3.240;2023-02-28T10:10:39;5.20;;;3.33;;
13797;SDS011;6970;51.340;3.240;2023-02-28T10:13:32;2.20;;;1.90;;
13797;SDS011;6970;51.340;3.240;2023-02-28T10:16:11;6.03;;;2.30;;
13797;SDS011;6970;51.340;3.240;2023-02-28T10:18:50;2.17;;;1.97;;
13797;SDS011;6970;51.340;3.240;2023-02-28T10:21:21;4.10;;;2.37;;
13797;SDS011;6970;51.340;3.240;2023-02-28T10:23:56;7.43;;;2.10;;
13797;SDS011;6970;51.340;3.240;2023-02-28T10:26:30;3.03;;;2.10;;
13797;SDS011;6970;51.340;3.240;2023-02-28T10:28:58;2.57;;;2.27;;
13797;SDS011;6970;51.340;3.240;2023-02-28T10:31:26;2.73;;;2.10;;
13797;SDS011;6970;51.340;3.240;2023-02-28T10:33:53;4.33;;;2.33;;
13797;SDS011;6970;51.340;3.240;2023-02-28T10:36:21;6.20;;;2.00;;
13797;SDS011;6970;51.340;3.240;2023-02-28T10:38:48;2.47;;;1.70;;
13797;SDS011;6970;51.340;3.240;2023-02-28T10:41:26;4.03;;;2.57;;
13797;SDS011;6970;51.340;3.240;2023-02-28T10:46:49;3.20;;;2.37;;
13797;SDS011;6970;51.340;3.240;2023-02-28T10:49:20;5.70;;;2.53;;
13797;SDS011;6970;51.340;3.240;2023-02-28T10:51:54;3.80;;;2.47;;
13797;SDS011;6970;51.340;3.240;2023-02-28T10:54:28;2.67;;;2.00;;
13797;SDS011;6970;51.340;3.240;2023-02-28T10:59:44;4.77;;;2.70;;
13797;SDS011;6970;51.340;3.240;2023-02-28T11:02:31;3.23;;;2.77;;
13797;SDS011;6970;51.340;3.240;2023-02-28T11:05:00;3.43;;;2.47;;
13797;SDS011;6970;51.340;3.240;2023-02-28T11:07:27;3.33;;;2.00;;
13797;SDS011;6970;51.340;3.240;2023-02-28T11:10:17;2.70;;;2.03;;
13797;SDS011;6970;51.340;3.240;2023-02-28T11:12:47;2.50;;;1.93;;
13797;SDS011;6970;51.340;3.240;2023-02-28T11:17:52;4.13;;;2.23;;
13797;SDS011;6970;51.340;3.240;2023-02-28T11:20:23;3.37;;;2.10;;
13797;SDS011;6970;51.340;3.240;2023-02-28T11:22:52;3.30;;;1.90;;
13797;SDS011;6970;51.340;3.240;2023-02-28T11:25:23;5.83;;;2.07;;
13797;SDS011;6970;51.340;3.240;2023-02-28T11:28:34;1.80;;;1.53;;
13797;SDS011;6970;51.340;3.240;2023-02-28T11:31:01;7.80;;;2.47;;
13797;SDS011;6970;51.340;3.240;2023-02-28T11:36:24;15.10;;;3.43;;
13797;SDS011;6970;51.340;3.240;2023-02-28T11:38:54;14.13;;;3.93;;
13797;SDS011;6970;51.340;3.240;2023-02-28T11:44:23;6.73;;;2.47;;
13797;SDS011;6970;51.340;3.240;2023-02-28T11:47:17;6.27;;;2.37;;
13797;SDS011;6970;51.340;3.240;2023-02-28T11:52:53;5.90;;;2.80;;
13797;SDS011;6970;51.340;3.240;2023-02-28T12:16:53;3.37;;;2.30;;
13797;SDS011;6970;51.340;3.240;2023-02-28T12:22:50;4.40;;;2.53;;
13797;SDS011;6970;51.340;3.240;2023-02-28T12:28:43;4.37;;;2.30;;
13797;SDS011;6970;51.340;3.240;2023-02-28T12:31:16;3.00;;;2.20;;
13797;SDS011;6970;51.340;3.240;2023-02-28T12:33:56;3.53;;;1.90;;
13797;SDS011;6970;51.340;3.240;2023-02-28T12:36:29;2.27;;;1.80;;
13797;SDS011;6970;51.340;3.240;2023-02-28T12:41:33;2.07;;;1.87;;
13797;SDS011;6970;51.340;3.240;2023-02-28T12:44:35;2.67;;;2.17;;
13797;SDS011;6970;51.340;3.240;2023-02-28T12:47:11;4.50;;;1.97;;
13797;SDS011;6970;51.340;3.240;2023-02-28T12:55:46;2.17;;;1.97;;
13797;SDS011;6970;51.340;3.240;2023-02-28T12:58:30;2.40;;;2.20;;
13797;SDS011;6970;51.340;3.240;2023-02-28T13:04:15;3.33;;;1.70;;
13797;SDS011;6970;51.340;3.240;2023-02-28T13:09:23;2.10;;;1.90;;
13797;SDS011;6970;51.340;3.240;2023-02-28T13:11:54;2.63;;;2.17;;
13797;SDS011;6970;51.340;3.240;2023-02-28T13:14:29;2.30;;;2.00;;
13797;SDS011;6970;51.340;3.240;2023-02-28T13:16:58;2.40;;;2.20;;
13797;SDS011;6970;51.340;3.240;2023-02-28T13:19:39;3.10;;;2.20;;
13797;SDS011;6970;51.340;3.240;2023-02-28T13:22:16;2.00;;;1.70;;
13797;SDS011;6970;51.340;3.240;2023-02-28T13:24:48;3.60;;;1.90;;
13797;SDS011;6970;51.340;3.240;2023-02-28T13:29:52;2.40;;;2.20;;
13797;SDS011;6970;51.340;3.240;2023-02-28T13:39:53;2.27;;;2.07;;
13797;SDS011;6970;51.340;3.240;2023-02-28T13:50:51;2.63;;;2.43;;
13797;SDS011;6970;51.340;3.240;2023-02-28T13:53:34;2.23;;;1.90;;
13797;SDS011;6970;51.340;3.240;2023-02-28T13:56:22;3.63;;;2.40;;
13797;SDS011;6970;51.340;3.240;2023-02-28T14:02:25;2.60;;;2.10;;
13797;SDS011;6970;51.340;3.240;2023-02-28T14:05:11;3.03;;;2.80;;
13797;SDS011;6970;51.340;3.240;2023-02-28T14:07:48;12.30;;;2.87;;
13797;SDS011;6970;51.340;3.240;2023-02-28T14:10:23;5.87;;;2.70;;
13797;SDS011;6970;51.340;3.240;2023-02-28T14:12:56;3.07;;;2.53;;
13797;SDS011;6970;51.340;3.240;2023-02-28T14:15:26;10.27;;;2.50;;
13797;SDS011;6970;51.340;3.240;2023-02-28T14:17:55;3.40;;;2.50;;
13797;SDS011;6970;51.340;3.240;2023-02-28T14:20:26;8.23;;;3.60;;
13797;SDS011;6970;51.340;3.240;2023-02-28T14:23:06;3.90;;;2.60;;
13797;SDS011;6970;51.340;3.240;2023-02-28T14:28:43;4.63;;;2.50;;
13797;SDS011;6970;51.340;3.240;2023-02-28T14:31:13;2.80;;;2.13;;
13797;SDS011;6970;51.340;3.240;2023-02-28T14:36:26;2.80;;;2.20;;
13797;SDS011;6970;51.340;3.240;2023-02-28T14:38:59;3.13;;;2.40;;
13797;SDS011;6970;51.340;3.240;2023-02-28T14:41:33;4.27;;;3.00;;
13797;SDS011;6970;51.340;3.240;2023-02-28T14:44:13;2.07;;;1.80;;
13797;SDS011;6970;51.340;3.240;2023-02-28T14:46:41;4.30;;;2.20;;
13797;SDS011;6970;51.340;3.240;2023-02-28T14:49:13;2.30;;;2.10;;
13797;SDS011;6970;51.340;3.240;2023-02-28T14:52:00;2.17;;;1.80;;
13797;SDS011;6970;51.340;3.240;2023-02-28T14:54:47;2.23;;;2.03;;
13797;SDS011;6970;51.340;3.240;2023-02-28T15:02:37;5.00;;;2.10;;
13797;SDS011;6970;51.340;3.240;2023-02-28T15:07:44;4.77;;;2.07;;
13797;SDS011;6970;51.340;3.240;2023-02-28T15:12:54;2.40;;;1.70;;
13797;SDS011;6970;51.340;3.240;2023-02-28T15:15:27;3.03;;;1.90;;
13797;SDS011;6970;51.340;3.240;2023-02-28T15:20:54;1.87;;;1.77;;
13797;SDS011;6970;51.340;3.240;2023-02-28T15:23:24;2.73;;;1.83;;
13797;SDS011;6970;51.340;3.240;2023-02-28T15:25:51;2.17;;;1.90;;
13797;SDS011;6970;51.340;3.240;2023-02-28T15:28:20;4.53;;;1.90;;
13797;SDS011;6970;51.340;3.240;2023-02-28T15:30:53;2.00;;;1.80;;
13797;SDS011;6970;51.340;3.240;2023-02-28T15:33:26;3.73;;;2.63;;
13797;SDS011;6970;51.340;3.240;2023-02-28T15:38:54;2.73;;;1.97;;
13797;SDS011;6970;51.340;3.240;2023-02-28T15:41:38;1.70;;;1.60;;
13797;SDS011;6970;51.340;3.240;2023-02-28T15:44:15;2.03;;;1.90;;
13797;SDS011;6970;51.340;3.240;2023-02-28T15:49:25;2.07;;;1.90;;
13797;SDS011;6970;51.340;3.240;2023-02-28T15:51:53;3.03;;;2.20;;
13797;SDS011;6970;51.340;3.240;2023-02-28T15:54:25;3.67;;;1.70;;
13797;SDS011;6970;51.340;3.240;2023-02-28T15:56:56;1.97;;;1.87;;
13797;SDS011;6970;51.340;3.240;2023-02-28T15:59:27;2.10;;;1.80;;
13797;SDS011;6970;51.340;3.240;2023-02-28T16:02:13;2.73;;;1.70;;
13797;SDS011;6970;51.340;3.240;2023-02-28T16:04:54;3.77;;;2.07;;
13797;SDS011;6970;51.340;3.240;2023-02-28T16:07:28;4.60;;;2.13;;
13797;SDS011;6970;51.340;3.240;2023-02-28T16:09:55;1.90;;;1.80;;
13797;SDS011;6970;51.340;3.240;2023-02-28T16:12:25;1.97;;;1.77;;
13797;SDS011;6970;51.340;3.240;2023-02-28T16:14:54;4.13;;;2.03;;
13797;SDS011;6970;51.340;3.240;2023-02-28T16:17:25;5.77;;;2.47;;
13797;SDS011;6970;51.340;3.240;2023-02-28T16:19:54;1.70;;;1.60;;
13797;SDS011;6970;51.340;3.240;2023-02-28T16:22:22;3.10;;;2.20;;
13797;SDS011;6970;51.340;3.240;2023-02-28T16:24:49;1.93;;;1.83;;
13797;SDS011;6970;51.340;3.240;2023-02-28T16:27:18;2.30;;;2.10;;
13797;SDS011;6970;51.340;3.240;2023-02-28T16:29:48;4.53;;;2.10;;
13797;SDS011;6970;51.340;3.240;2023-02-28T16:32:15;3.37;;;1.80;;
13797;SDS011;6970;51.340;3.240;2023-02-28T16:34:43;2.87;;;2.53;;
13797;SDS011;6970;51.340;3.240;2023-02-28T16:37:14;3.03;;;2.30;;
13797;SDS011;6970;51.340;3.240;2023-02-28T16:39:43;3.07;;;2.20;;
13797;SDS011;6970;51.340;3.240;2023-02-28T16:42:21;4.60;;;2.40;;
13797;SDS011;6970;51.340;3.240;2023-02-28T16:44:52;3.90;;;2.23;;
13797;SDS011;6970;51.340;3.240;2023-02-28T16:47:20;2.33;;;2.13;;
13797;SDS011;6970;51.340;3.240;2023-02-28T16:49:47;2.40;;;2.20;;
13797;SDS011;6970;51.340;3.240;2023-02-28T16:52:14;2.50;;;2.17;;
13797;SDS011;6970;51.340;3.240;2023-02-28T16:54:41;2.00;;;1.90;;
13797;SDS011;6970;51.340;3.240;2023-02-28T16:57:20;3.43;;;2.20;;
13797;SDS011;6970;51.340;3.240;2023-02-28T16:59:49;2.20;;;2.00;;
13797;SDS011;6970;51.340;3.240;2023-02-28T17:02:19;2.07;;;1.90;;
13797;SDS011;6970;51.340;3.240;2023-02-28T17:04:47;2.17;;;2.07;;
13797;SDS011;6970;51.340;3.240;2023-02-28T17:07:14;2.97;;;2.20;;
13797;SDS011;6970;51.340;3.240;2023-02-28T17:09:43;2.77;;;2.10;;
13797;SDS011;6970;51.340;3.240;2023-02-28T17:12:12;2.50;;;2.27;;
13797;SDS011;6970;51.340;3.240;2023-02-28T17:14:39;2.67;;;2.30;;
13797;SDS011;6970;51.340;3.240;2023-02-28T17:17:06;2.67;;;2.40;;
13797;SDS011;6970;51.340;3.240;2023-02-28T17:19:33;2.57;;;2.37;;
13797;SDS011;6970;51.340;3.240;2023-02-28T17:22:03;2.63;;;2.20;;
13797;SDS011;6970;51.340;3.240;2023-02-28T17:24:30;2.70;;;2.50;;
13797;SDS011;6970;51.340;3.240;2023-02-28T17:26:57;11.70;;;5.27;;
13797;SDS011;6970;51.340;3.240;2023-02-28T17:29:24;4.47;;;2.97;;
13797;SDS011;6970;51.340;3.240;2023-02-28T17:31:54;2.80;;;2.50;;
13797;SDS011;6970;51.340;3.240;2023-02-28T17:34:25;2.60;;;2.23;;
13797;SDS011;6970;51.340;3.240;2023-02-28T17:36:52;3.30;;;2.23;;
13797;SDS011;6970;51.340;3.240;2023-02-28T17:39:20;2.40;;;2.20;;
13797;SDS011;6970;51.340;3.240;2023-02-28T17:41:54;2.10;;;1.90;;
13797;SDS011;6970;51.340;3.240;2023-02-28T17:44:23;3.80;;;3.33;;
13797;SDS011;6970;51.340;3.240;2023-02-28T17:46:51;3.07;;;2.50;;
13797;SDS011;6970;51.340;3.240;2023-02-28T17:49:21;3.33;;;2.53;;
13797;SDS011;6970;51.340;3.240;2023-02-28T17:51:48;2.70;;;2.50;;
13797;SDS011;6970;51.340;3.240;2023-02-28T17:54:18;3.97;;;2.70;;
13797;SDS011;6970;51.340;3.240;2023-02-28T17:56:45;2.60;;;2.40;;
13797;SDS011;6970;51.340;3.240;2023-02-28T17:59:12;3.83;;;2.90;;